sensor_id;sensor_type;location;lat;lon;timestamp;temperature;humidity
19110;DHT22;9687;50.836;12.060;2022-09-09T00:01:07;18.90;84.30
19110;DHT22;9687;50.836;12.060;2022-09-09T00:03:43;18.90;84.50
19110;DHT22;9687;50.836;12.060;2022-09-09T00:06:19;18.90;84.60
19110;DHT22;9687;50.836;12.060;2022-09-09T00:09:02;18.80;84.50
19110;DHT22;9687;50.836;12.060;2022-09-09T00:11:40;18.80;84.80
19110;DHT22;9687;50.836;12.060;2022-09-09T00:14:16;18.90;85.00
19110;DHT22;9687;50.836;12.060;2022-09-09T00:16:51;18.90;85.00
19110;DHT22;9687;50.836;12.060;2022-09-09T00:19:26;18.90;85.00
19110;DHT22;9687;50.836;12.060;2022-09-09T00:22:06;18.90;85.80
19110;DHT22;9687;50.836;12.060;2022-09-09T00:24:44;18.80;84.40
19110;DHT22;9687;50.836;12.060;2022-09-09T00:27:21;18.80;85.00
19110;DHT22;9687;50.836;12.060;2022-09-09T00:29:53;18.80;85.20
19110;DHT22;9687;50.836;12.060;2022-09-09T00:32:29;18.80;85.20
19110;DHT22;9687;50.836;12.060;2022-09-09T00:35:03;18.80;85.30
19110;DHT22;9687;50.836;12.060;2022-09-09T00:37:35;18.80;85.30
19110;DHT22;9687;50.836;12.060;2022-09-09T00:40:12;18.80;85.30
19110;DHT22;9687;50.836;12.060;2022-09-09T00:42:44;18.80;85.30
19110;DHT22;9687;50.836;12.060;2022-09-09T00:45:25;18.80;85.60
19110;DHT22;9687;50.836;12.060;2022-09-09T00:48:02;18.70;85.50
19110;DHT22;9687;50.836;12.060;2022-09-09T00:50:41;18.70;85.50
19110;DHT22;9687;50.836;12.060;2022-09-09T00:53:19;18.70;85.50
19110;DHT22;9687;50.836;12.060;2022-09-09T00:55:56;18.70;85.50
19110;DHT22;9687;50.836;12.060;2022-09-09T00:58:26;18.70;85.80
19110;DHT22;9687;50.836;12.060;2022-09-09T01:01:01;18.70;85.80
19110;DHT22;9687;50.836;12.060;2022-09-09T01:03:39;18.70;85.90
19110;DHT22;9687;50.836;12.060;2022-09-09T01:06:15;18.70;85.70
19110;DHT22;9687;50.836;12.060;2022-09-09T01:09:00;18.60;85.60
19110;DHT22;9687;50.836;12.060;2022-09-09T01:11:36;18.60;85.70
19110;DHT22;9687;50.836;12.060;2022-09-09T01:14:16;18.60;85.80
19110;DHT22;9687;50.836;12.060;2022-09-09T01:16:46;18.60;85.80
19110;DHT22;9687;50.836;12.060;2022-09-09T01:19:23;18.60;86.00
19110;DHT22;9687;50.836;12.060;2022-09-09T01:21:59;18.60;86.10
19110;DHT22;9687;50.836;12.060;2022-09-09T01:24:32;18.60;86.40
19110;DHT22;9687;50.836;12.060;2022-09-09T01:27:08;18.50;86.50
19110;DHT22;9687;50.836;12.060;2022-09-09T01:29:38;18.60;86.90
19110;DHT22;9687;50.836;12.060;2022-09-09T01:32:38;18.50;86.70
19110;DHT22;9687;50.836;12.060;2022-09-09T01:35:10;18.60;86.70
19110;DHT22;9687;50.836;12.060;2022-09-09T01:37:39;18.60;86.50
19110;DHT22;9687;50.836;12.060;2022-09-09T01:40:09;18.50;86.40
19110;DHT22;9687;50.836;12.060;2022-09-09T01:42:39;18.60;86.60
19110;DHT22;9687;50.836;12.060;2022-09-09T01:45:08;18.50;86.50
19110;DHT22;9687;50.836;12.060;2022-09-09T01:47:37;18.50;86.70
19110;DHT22;9687;50.836;12.060;2022-09-09T01:50:09;18.40;85.90
19110;DHT22;9687;50.836;12.060;2022-09-09T01:52:38;18.50;86.60
19110;DHT22;9687;50.836;12.060;2022-09-09T01:55:12;18.40;86.50
19110;DHT22;9687;50.836;12.060;2022-09-09T01:57:50;18.40;86.00
19110;DHT22;9687;50.836;12.060;2022-09-09T02:00:22;18.30;86.50
19110;DHT22;9687;50.836;12.060;2022-09-09T02:03:17;18.30;86.30
19110;DHT22;9687;50.836;12.060;2022-09-09T02:05:55;18.10;85.90
19110;DHT22;9687;50.836;12.060;2022-09-09T02:08:31;18.10;86.50
19110;DHT22;9687;50.836;12.060;2022-09-09T02:11:06;18.10;86.90
19110;DHT22;9687;50.836;12.060;2022-09-09T02:13:37;18.00;86.70
19110;DHT22;9687;50.836;12.060;2022-09-09T02:16:08;18.00;87.40
19110;DHT22;9687;50.836;12.060;2022-09-09T02:18:45;18.00;87.40
19110;DHT22;9687;50.836;12.060;2022-09-09T02:21:17;17.90;87.60
19110;DHT22;9687;50.836;12.060;2022-09-09T02:23:47;17.90;87.80
19110;DHT22;9687;50.836;12.060;2022-09-09T02:26:16;17.90;88.00
19110;DHT22;9687;50.836;12.060;2022-09-09T02:28:50;17.90;88.10
19110;DHT22;9687;50.836;12.060;2022-09-09T02:31:20;17.90;88.20
19110;DHT22;9687;50.836;12.060;2022-09-09T02:33:53;17.90;88.30
19110;DHT22;9687;50.836;12.060;2022-09-09T02:36:24;17.90;88.30
19110;DHT22;9687;50.836;12.060;2022-09-09T02:38:52;17.90;88.20
19110;DHT22;9687;50.836;12.060;2022-09-09T02:41:22;17.90;88.20
19110;DHT22;9687;50.836;12.060;2022-09-09T02:43:56;17.90;88.20
19110;DHT22;9687;50.836;12.060;2022-09-09T02:46:51;17.90;88.10
19110;DHT22;9687;50.836;12.060;2022-09-09T02:49:40;17.90;88.30
19110;DHT22;9687;50.836;12.060;2022-09-09T02:52:14;18.00;88.20
19110;DHT22;9687;50.836;12.060;2022-09-09T02:54:44;18.00;88.00
19110;DHT22;9687;50.836;12.060;2022-09-09T02:57:14;18.00;88.00
19110;DHT22;9687;50.836;12.060;2022-09-09T02:59:45;18.00;87.90
19110;DHT22;9687;50.836;12.060;2022-09-09T03:02:12;18.00;87.70
19110;DHT22;9687;50.836;12.060;2022-09-09T03:04:40;18.00;87.60
19110;DHT22;9687;50.836;12.060;2022-09-09T03:07:12;18.00;87.30
19110;DHT22;9687;50.836;12.060;2022-09-09T03:09:43;18.00;87.30
19110;DHT22;9687;50.836;12.060;2022-09-09T03:12:11;17.60;86.80
19110;DHT22;9687;50.836;12.060;2022-09-09T03:14:39;18.00;87.10
19110;DHT22;9687;50.836;12.060;2022-09-09T03:17:10;18.00;87.20
19110;DHT22;9687;50.836;12.060;2022-09-09T03:19:38;18.00;87.30
19110;DHT22;9687;50.836;12.060;2022-09-09T03:22:07;18.10;87.40
19110;DHT22;9687;50.836;12.060;2022-09-09T03:24:39;18.10;87.20
19110;DHT22;9687;50.836;12.060;2022-09-09T03:27:08;18.10;87.00
19110;DHT22;9687;50.836;12.060;2022-09-09T03:29:41;18.10;87.20
19110;DHT22;9687;50.836;12.060;2022-09-09T03:32:09;18.20;87.00
19110;DHT22;9687;50.836;12.060;2022-09-09T03:35:10;18.10;86.90
19110;DHT22;9687;50.836;12.060;2022-09-09T03:37:39;18.20;86.80
19110;DHT22;9687;50.836;12.060;2022-09-09T03:40:28;18.20;86.70
19110;DHT22;9687;50.836;12.060;2022-09-09T03:43:04;18.10;86.50
19110;DHT22;9687;50.836;12.060;2022-09-09T03:45:41;18.10;86.70
19110;DHT22;9687;50.836;12.060;2022-09-09T03:48:12;18.00;86.70
19110;DHT22;9687;50.836;12.060;2022-09-09T03:50:44;17.90;86.30
19110;DHT22;9687;50.836;12.060;2022-09-09T03:53:12;17.90;87.00
19110;DHT22;9687;50.836;12.060;2022-09-09T03:55:44;17.80;87.20
19110;DHT22;9687;50.836;12.060;2022-09-09T03:58:15;17.70;87.70
19110;DHT22;9687;50.836;12.060;2022-09-09T04:00:53;17.70;88.00
19110;DHT22;9687;50.836;12.060;2022-09-09T04:03:23;17.60;87.50
19110;DHT22;9687;50.836;12.060;2022-09-09T04:06:00;17.70;88.40
19110;DHT22;9687;50.836;12.060;2022-09-09T04:08:33;17.70;88.40
19110;DHT22;9687;50.836;12.060;2022-09-09T04:11:03;17.70;88.50
19110;DHT22;9687;50.836;12.060;2022-09-09T04:13:31;17.70;88.50
19110;DHT22;9687;50.836;12.060;2022-09-09T04:16:02;17.70;88.70
19110;DHT22;9687;50.836;12.060;2022-09-09T04:18:36;17.70;88.70
19110;DHT22;9687;50.836;12.060;2022-09-09T04:21:05;17.70;88.90
19110;DHT22;9687;50.836;12.060;2022-09-09T04:23:35;17.70;89.20
19110;DHT22;9687;50.836;12.060;2022-09-09T04:26:04;17.70;89.20
19110;DHT22;9687;50.836;12.060;2022-09-09T04:28:34;17.70;89.20
19110;DHT22;9687;50.836;12.060;2022-09-09T04:31:05;17.70;89.20
19110;DHT22;9687;50.836;12.060;2022-09-09T04:33:35;17.70;89.20
19110;DHT22;9687;50.836;12.060;2022-09-09T04:36:06;17.70;89.20
19110;DHT22;9687;50.836;12.060;2022-09-09T04:38:45;17.70;89.80
19110;DHT22;9687;50.836;12.060;2022-09-09T04:41:16;17.70;89.90
19110;DHT22;9687;50.836;12.060;2022-09-09T04:43:44;17.70;90.00
19110;DHT22;9687;50.836;12.060;2022-09-09T04:46:24;17.80;90.10
19110;DHT22;9687;50.836;12.060;2022-09-09T04:48:53;17.80;90.20
19110;DHT22;9687;50.836;12.060;2022-09-09T04:51:23;17.80;90.20
19110;DHT22;9687;50.836;12.060;2022-09-09T04:53:52;17.80;90.20
19110;DHT22;9687;50.836;12.060;2022-09-09T04:56:21;17.90;90.20
19110;DHT22;9687;50.836;12.060;2022-09-09T04:58:55;17.90;90.20
19110;DHT22;9687;50.836;12.060;2022-09-09T05:01:26;18.00;90.00
19110;DHT22;9687;50.836;12.060;2022-09-09T05:03:55;17.90;89.40
19110;DHT22;9687;50.836;12.060;2022-09-09T05:06:24;17.90;89.40
19110;DHT22;9687;50.836;12.060;2022-09-09T05:08:53;18.00;89.30
19110;DHT22;9687;50.836;12.060;2022-09-09T05:11:22;18.00;89.20
19110;DHT22;9687;50.836;12.060;2022-09-09T05:13:51;18.00;89.50
19110;DHT22;9687;50.836;12.060;2022-09-09T05:16:19;18.00;89.20
19110;DHT22;9687;50.836;12.060;2022-09-09T05:18:49;18.00;89.40
19110;DHT22;9687;50.836;12.060;2022-09-09T05:21:24;18.00;89.70
19110;DHT22;9687;50.836;12.060;2022-09-09T05:24:13;18.00;89.50
19110;DHT22;9687;50.836;12.060;2022-09-09T05:27:13;18.00;89.60
19110;DHT22;9687;50.836;12.060;2022-09-09T05:29:59;17.90;89.50
19110;DHT22;9687;50.836;12.060;2022-09-09T05:32:33;17.90;89.40
19110;DHT22;9687;50.836;12.060;2022-09-09T05:35:14;17.90;89.90
19110;DHT22;9687;50.836;12.060;2022-09-09T05:38:06;18.00;90.00
19110;DHT22;9687;50.836;12.060;2022-09-09T05:40:34;18.00;90.00
19110;DHT22;9687;50.836;12.060;2022-09-09T05:43:03;18.00;90.10
19110;DHT22;9687;50.836;12.060;2022-09-09T05:45:37;18.00;90.00
19110;DHT22;9687;50.836;12.060;2022-09-09T05:48:05;18.10;90.00
19110;DHT22;9687;50.836;12.060;2022-09-09T05:50:33;18.10;90.00
19110;DHT22;9687;50.836;12.060;2022-09-09T05:53:07;18.10;90.10
19110;DHT22;9687;50.836;12.060;2022-09-09T05:56:03;18.10;90.20
19110;DHT22;9687;50.836;12.060;2022-09-09T05:58:49;18.20;90.30
19110;DHT22;9687;50.836;12.060;2022-09-09T06:01:53;18.20;90.20
19110;DHT22;9687;50.836;12.060;2022-09-09T06:04:41;18.20;90.30
19110;DHT22;9687;50.836;12.060;2022-09-09T06:07:10;18.20;90.40
19110;DHT22;9687;50.836;12.060;2022-09-09T06:10:01;18.20;90.50
19110;DHT22;9687;50.836;12.060;2022-09-09T06:12:31;18.30;90.50
19110;DHT22;9687;50.836;12.060;2022-09-09T06:15:17;18.30;90.50
19110;DHT22;9687;50.836;12.060;2022-09-09T06:18:05;18.30;90.50
19110;DHT22;9687;50.836;12.060;2022-09-09T06:20:56;18.30;90.70
19110;DHT22;9687;50.836;12.060;2022-09-09T06:23:43;18.30;90.70
19110;DHT22;9687;50.836;12.060;2022-09-09T06:26:29;18.30;90.60
19110;DHT22;9687;50.836;12.060;2022-09-09T06:29:26;18.30;90.80
19110;DHT22;9687;50.836;12.060;2022-09-09T06:31:54;18.30;90.70
19110;DHT22;9687;50.836;12.060;2022-09-09T06:34:37;18.40;90.70
19110;DHT22;9687;50.836;12.060;2022-09-09T06:37:26;18.40;90.80
19110;DHT22;9687;50.836;12.060;2022-09-09T06:39:54;18.40;91.00
19110;DHT22;9687;50.836;12.060;2022-09-09T06:42:24;18.40;90.90
19110;DHT22;9687;50.836;12.060;2022-09-09T06:45:04;18.50;91.00
19110;DHT22;9687;50.836;12.060;2022-09-09T06:47:43;18.50;91.00
19110;DHT22;9687;50.836;12.060;2022-09-09T06:50:13;18.50;90.80
19110;DHT22;9687;50.836;12.060;2022-09-09T06:53:06;18.50;90.80
19110;DHT22;9687;50.836;12.060;2022-09-09T06:55:57;18.60;90.70
19110;DHT22;9687;50.836;12.060;2022-09-09T06:58:29;18.60;90.70
19110;DHT22;9687;50.836;12.060;2022-09-09T07:01:21;18.60;90.60
19110;DHT22;9687;50.836;12.060;2022-09-09T07:03:57;18.60;90.60
19110;DHT22;9687;50.836;12.060;2022-09-09T07:06:27;18.70;90.80
19110;DHT22;9687;50.836;12.060;2022-09-09T07:09:18;18.70;90.80
19110;DHT22;9687;50.836;12.060;2022-09-09T07:11:56;18.80;91.00
19110;DHT22;9687;50.836;12.060;2022-09-09T07:14:37;18.80;91.10
19110;DHT22;9687;50.836;12.060;2022-09-09T07:17:27;18.80;91.20
19110;DHT22;9687;50.836;12.060;2022-09-09T07:19:58;18.90;91.40
19110;DHT22;9687;50.836;12.060;2022-09-09T07:22:33;19.00;91.50
19110;DHT22;9687;50.836;12.060;2022-09-09T07:25:04;19.10;91.50
19110;DHT22;9687;50.836;12.060;2022-09-09T07:27:34;19.10;91.40
19110;DHT22;9687;50.836;12.060;2022-09-09T07:30:07;19.10;91.30
19110;DHT22;9687;50.836;12.060;2022-09-09T07:32:41;19.20;91.50
19110;DHT22;9687;50.836;12.060;2022-09-09T07:35:15;19.20;91.50
19110;DHT22;9687;50.836;12.060;2022-09-09T07:37:51;19.30;91.50
19110;DHT22;9687;50.836;12.060;2022-09-09T07:40:25;19.30;91.60
19110;DHT22;9687;50.836;12.060;2022-09-09T07:43:13;19.40;91.70
19110;DHT22;9687;50.836;12.060;2022-09-09T07:45:46;19.40;91.50
19110;DHT22;9687;50.836;12.060;2022-09-09T07:48:16;19.50;91.60
19110;DHT22;9687;50.836;12.060;2022-09-09T07:50:51;19.50;91.60
19110;DHT22;9687;50.836;12.060;2022-09-09T07:53:19;19.50;91.50
19110;DHT22;9687;50.836;12.060;2022-09-09T07:55:49;19.60;91.50
19110;DHT22;9687;50.836;12.060;2022-09-09T07:58:18;19.70;91.60
19110;DHT22;9687;50.836;12.060;2022-09-09T08:00:54;19.70;91.50
19110;DHT22;9687;50.836;12.060;2022-09-09T08:03:21;19.80;91.30
19110;DHT22;9687;50.836;12.060;2022-09-09T08:05:50;19.90;91.10
19110;DHT22;9687;50.836;12.060;2022-09-09T08:08:22;20.00;90.90
19110;DHT22;9687;50.836;12.060;2022-09-09T08:11:06;20.10;90.70
19110;DHT22;9687;50.836;12.060;2022-09-09T08:13:38;20.10;90.30
19110;DHT22;9687;50.836;12.060;2022-09-09T08:16:10;20.20;90.40
19110;DHT22;9687;50.836;12.060;2022-09-09T08:18:45;20.30;90.30
19110;DHT22;9687;50.836;12.060;2022-09-09T08:21:28;20.40;90.10
19110;DHT22;9687;50.836;12.060;2022-09-09T08:23:58;20.40;90.00
19110;DHT22;9687;50.836;12.060;2022-09-09T08:26:30;20.50;89.60
19110;DHT22;9687;50.836;12.060;2022-09-09T08:29:06;20.60;89.80
19110;DHT22;9687;50.836;12.060;2022-09-09T08:31:42;20.70;90.00
19110;DHT22;9687;50.836;12.060;2022-09-09T08:34:11;20.80;89.70
19110;DHT22;9687;50.836;12.060;2022-09-09T08:36:40;20.90;88.30
19110;DHT22;9687;50.836;12.060;2022-09-09T08:39:29;21.00;88.70
19110;DHT22;9687;50.836;12.060;2022-09-09T08:42:12;21.20;88.50
19110;DHT22;9687;50.836;12.060;2022-09-09T08:44:57;21.40;88.60
19110;DHT22;9687;50.836;12.060;2022-09-09T08:47:37;21.60;88.30
19110;DHT22;9687;50.836;12.060;2022-09-09T08:50:19;21.90;88.20
19110;DHT22;9687;50.836;12.060;2022-09-09T08:53:01;22.10;87.10
19110;DHT22;9687;50.836;12.060;2022-09-09T08:55:39;22.70;83.40
19110;DHT22;9687;50.836;12.060;2022-09-09T08:58:17;22.70;84.10
19110;DHT22;9687;50.836;12.060;2022-09-09T09:01:05;23.10;83.80
19110;DHT22;9687;50.836;12.060;2022-09-09T09:03:47;23.60;81.60
19110;DHT22;9687;50.836;12.060;2022-09-09T09:06:25;24.00;79.90
19110;DHT22;9687;50.836;12.060;2022-09-09T09:09:01;24.50;78.80
19110;DHT22;9687;50.836;12.060;2022-09-09T09:11:35;25.00;76.40
19110;DHT22;9687;50.836;12.060;2022-09-09T09:14:09;25.40;75.20
19110;DHT22;9687;50.836;12.060;2022-09-09T09:16:44;25.80;72.70
19110;DHT22;9687;50.836;12.060;2022-09-09T09:19:16;26.20;70.80
19110;DHT22;9687;50.836;12.060;2022-09-09T09:21:49;26.50;70.10
19110;DHT22;9687;50.836;12.060;2022-09-09T09:24:20;26.80;69.20
19110;DHT22;9687;50.836;12.060;2022-09-09T09:26:49;27.20;67.70
19110;DHT22;9687;50.836;12.060;2022-09-09T09:29:23;27.50;66.40
19110;DHT22;9687;50.836;12.060;2022-09-09T09:31:59;27.80;64.90
19110;DHT22;9687;50.836;12.060;2022-09-09T09:34:30;28.10;63.70
19110;DHT22;9687;50.836;12.060;2022-09-09T09:37:00;28.40;61.70
19110;DHT22;9687;50.836;12.060;2022-09-09T09:39:34;28.60;60.50
19110;DHT22;9687;50.836;12.060;2022-09-09T09:42:09;28.80;60.20
19110;DHT22;9687;50.836;12.060;2022-09-09T09:44:41;28.90;59.90
19110;DHT22;9687;50.836;12.060;2022-09-09T09:47:19;29.00;58.60
19110;DHT22;9687;50.836;12.060;2022-09-09T09:49:56;29.10;58.20
19110;DHT22;9687;50.836;12.060;2022-09-09T09:52:41;29.10;58.60
19110;DHT22;9687;50.836;12.060;2022-09-09T09:55:13;29.10;58.10
19110;DHT22;9687;50.836;12.060;2022-09-09T09:57:43;29.00;57.30
19110;DHT22;9687;50.836;12.060;2022-09-09T10:00:17;28.80;56.90
19110;DHT22;9687;50.836;12.060;2022-09-09T10:03:14;28.70;56.60
19110;DHT22;9687;50.836;12.060;2022-09-09T10:05:50;28.50;56.60
19110;DHT22;9687;50.836;12.060;2022-09-09T10:08:20;28.20;56.60
19110;DHT22;9687;50.836;12.060;2022-09-09T10:11:09;28.10;56.60
19110;DHT22;9687;50.836;12.060;2022-09-09T10:13:50;27.80;56.70
19110;DHT22;9687;50.836;12.060;2022-09-09T10:16:38;27.60;57.40
19110;DHT22;9687;50.836;12.060;2022-09-09T10:19:13;27.40;58.00
19110;DHT22;9687;50.836;12.060;2022-09-09T10:22:11;27.30;58.00
19110;DHT22;9687;50.836;12.060;2022-09-09T10:24:54;27.10;58.00
19110;DHT22;9687;50.836;12.060;2022-09-09T10:27:29;27.10;58.40
19110;DHT22;9687;50.836;12.060;2022-09-09T10:30:06;27.00;58.60
19110;DHT22;9687;50.836;12.060;2022-09-09T10:32:49;26.90;58.80
19110;DHT22;9687;50.836;12.060;2022-09-09T10:35:25;27.00;58.90
19110;DHT22;9687;50.836;12.060;2022-09-09T10:38:11;27.00;59.00
19110;DHT22;9687;50.836;12.060;2022-09-09T10:41:00;27.10;59.30
19110;DHT22;9687;50.836;12.060;2022-09-09T10:43:46;27.20;59.10
19110;DHT22;9687;50.836;12.060;2022-09-09T10:46:40;27.20;58.60
19110;DHT22;9687;50.836;12.060;2022-09-09T10:49:19;27.20;58.50
19110;DHT22;9687;50.836;12.060;2022-09-09T10:52:04;27.10;58.10
19110;DHT22;9687;50.836;12.060;2022-09-09T10:54:55;27.30;58.90
19110;DHT22;9687;50.836;12.060;2022-09-09T10:57:29;27.10;57.80
19110;DHT22;9687;50.836;12.060;2022-09-09T11:00:13;27.10;57.80
19110;DHT22;9687;50.836;12.060;2022-09-09T11:03:01;27.00;58.10
19110;DHT22;9687;50.836;12.060;2022-09-09T11:05:34;27.00;58.30
19110;DHT22;9687;50.836;12.060;2022-09-09T11:08:12;27.00;58.40
19110;DHT22;9687;50.836;12.060;2022-09-09T11:10:51;27.10;58.40
19110;DHT22;9687;50.836;12.060;2022-09-09T11:13:26;27.20;58.90
19110;DHT22;9687;50.836;12.060;2022-09-09T11:16:03;27.30;58.10
19110;DHT22;9687;50.836;12.060;2022-09-09T11:18:38;27.40;57.90
19110;DHT22;9687;50.836;12.060;2022-09-09T11:21:12;27.40;58.00
19110;DHT22;9687;50.836;12.060;2022-09-09T11:23:48;27.50;58.20
19110;DHT22;9687;50.836;12.060;2022-09-09T11:26:23;27.60;57.80
19110;DHT22;9687;50.836;12.060;2022-09-09T11:29:03;27.70;57.50
19110;DHT22;9687;50.836;12.060;2022-09-09T11:31:45;27.80;57.20
19110;DHT22;9687;50.836;12.060;2022-09-09T11:34:33;27.90;57.50
19110;DHT22;9687;50.836;12.060;2022-09-09T11:37:21;27.90;57.40
19110;DHT22;9687;50.836;12.060;2022-09-09T11:40:15;28.00;57.20
19110;DHT22;9687;50.836;12.060;2022-09-09T11:43:02;28.00;56.50
19110;DHT22;9687;50.836;12.060;2022-09-09T11:45:34;28.00;56.10
19110;DHT22;9687;50.836;12.060;2022-09-09T11:48:04;27.90;55.60
19110;DHT22;9687;50.836;12.060;2022-09-09T11:50:35;27.90;56.30
19110;DHT22;9687;50.836;12.060;2022-09-09T11:53:23;27.90;56.10
19110;DHT22;9687;50.836;12.060;2022-09-09T11:56:23;28.00;55.90
19110;DHT22;9687;50.836;12.060;2022-09-09T12:03:04;28.00;56.10
19110;DHT22;9687;50.836;12.060;2022-09-09T12:06:20;28.00;56.50
19110;DHT22;9687;50.836;12.060;2022-09-09T12:09:26;28.00;55.80
19110;DHT22;9687;50.836;12.060;2022-09-09T12:12:47;28.00;56.00
19110;DHT22;9687;50.836;12.060;2022-09-09T12:15:51;27.90;56.10
19110;DHT22;9687;50.836;12.060;2022-09-09T12:18:36;27.90;56.00
19110;DHT22;9687;50.836;12.060;2022-09-09T12:36:54;27.90;55.60
19110;DHT22;9687;50.836;12.060;2022-09-09T12:50:23;27.80;54.60
19110;DHT22;9687;50.836;12.060;2022-09-09T12:53:03;27.70;55.00
19110;DHT22;9687;50.836;12.060;2022-09-09T12:55:38;27.60;54.20
19110;DHT22;9687;50.836;12.060;2022-09-09T12:58:17;27.60;55.00
19110;DHT22;9687;50.836;12.060;2022-09-09T13:00:52;27.60;54.40
19110;DHT22;9687;50.836;12.060;2022-09-09T13:03:24;27.60;54.20
19110;DHT22;9687;50.836;12.060;2022-09-09T13:05:58;27.50;53.90
19110;DHT22;9687;50.836;12.060;2022-09-09T13:08:37;27.50;52.80
19110;DHT22;9687;50.836;12.060;2022-09-09T13:11:14;27.50;53.60
19110;DHT22;9687;50.836;12.060;2022-09-09T13:13:50;27.50;53.60
19110;DHT22;9687;50.836;12.060;2022-09-09T13:16:25;27.40;53.60
19110;DHT22;9687;50.836;12.060;2022-09-09T13:19:01;27.40;53.20
19110;DHT22;9687;50.836;12.060;2022-09-09T13:21:34;27.40;53.00
19110;DHT22;9687;50.836;12.060;2022-09-09T13:35:34;27.30;53.40
19110;DHT22;9687;50.836;12.060;2022-09-09T13:42:19;27.20;53.70
19110;DHT22;9687;50.836;12.060;2022-09-09T13:44:51;27.20;53.90
19110;DHT22;9687;50.836;12.060;2022-09-09T13:47:30;27.10;53.20
19110;DHT22;9687;50.836;12.060;2022-09-09T13:50:20;27.00;53.40
19110;DHT22;9687;50.836;12.060;2022-09-09T13:52:52;27.00;53.80
19110;DHT22;9687;50.836;12.060;2022-09-09T13:55:24;26.90;53.70
19110;DHT22;9687;50.836;12.060;2022-09-09T13:57:53;26.80;53.60
19110;DHT22;9687;50.836;12.060;2022-09-09T14:00:23;26.80;54.20
19110;DHT22;9687;50.836;12.060;2022-09-09T14:02:51;26.70;54.40
19110;DHT22;9687;50.836;12.060;2022-09-09T14:05:23;26.60;54.70
19110;DHT22;9687;50.836;12.060;2022-09-09T14:07:53;26.60;55.10
19110;DHT22;9687;50.836;12.060;2022-09-09T14:10:23;26.50;55.10
19110;DHT22;9687;50.836;12.060;2022-09-09T14:12:50;26.40;55.30
19110;DHT22;9687;50.836;12.060;2022-09-09T14:15:20;26.40;55.60
19110;DHT22;9687;50.836;12.060;2022-09-09T14:17:52;26.30;55.80
19110;DHT22;9687;50.836;12.060;2022-09-09T14:20:24;26.30;56.00
19110;DHT22;9687;50.836;12.060;2022-09-09T14:23:00;26.20;56.10
19110;DHT22;9687;50.836;12.060;2022-09-09T14:25:29;26.20;56.30
19110;DHT22;9687;50.836;12.060;2022-09-09T14:27:58;26.10;56.00
19110;DHT22;9687;50.836;12.060;2022-09-09T14:30:29;26.00;55.40
19110;DHT22;9687;50.836;12.060;2022-09-09T14:32:59;26.00;55.90
19110;DHT22;9687;50.836;12.060;2022-09-09T14:35:29;25.90;56.20
19110;DHT22;9687;50.836;12.060;2022-09-09T14:38:01;25.90;56.60
19110;DHT22;9687;50.836;12.060;2022-09-09T14:40:31;25.90;56.70
19110;DHT22;9687;50.836;12.060;2022-09-09T14:43:00;25.90;56.80
19110;DHT22;9687;50.836;12.060;2022-09-09T14:45:28;25.90;56.60
19110;DHT22;9687;50.836;12.060;2022-09-09T14:47:56;25.90;56.40
19110;DHT22;9687;50.836;12.060;2022-09-09T14:50:31;25.90;56.30
19110;DHT22;9687;50.836;12.060;2022-09-09T14:53:02;25.90;56.10
19110;DHT22;9687;50.836;12.060;2022-09-09T14:55:33;25.90;56.20
19110;DHT22;9687;50.836;12.060;2022-09-09T14:58:04;25.90;56.40
19110;DHT22;9687;50.836;12.060;2022-09-09T15:00:32;25.90;56.10
19110;DHT22;9687;50.836;12.060;2022-09-09T15:03:01;25.90;56.00
19110;DHT22;9687;50.836;12.060;2022-09-09T15:05:36;25.90;54.90
19110;DHT22;9687;50.836;12.060;2022-09-09T15:08:08;25.90;54.10
19110;DHT22;9687;50.836;12.060;2022-09-09T15:10:37;25.90;54.50
19110;DHT22;9687;50.836;12.060;2022-09-09T15:13:07;25.90;54.70
19110;DHT22;9687;50.836;12.060;2022-09-09T15:15:36;25.90;55.00
19110;DHT22;9687;50.836;12.060;2022-09-09T15:18:05;25.90;55.40
19110;DHT22;9687;50.836;12.060;2022-09-09T15:20:34;25.80;55.50
19110;DHT22;9687;50.836;12.060;2022-09-09T15:23:06;25.70;55.70
19110;DHT22;9687;50.836;12.060;2022-09-09T15:25:50;25.60;55.00
19110;DHT22;9687;50.836;12.060;2022-09-09T15:28:19;25.60;55.80
19110;DHT22;9687;50.836;12.060;2022-09-09T15:30:50;25.50;56.00
19110;DHT22;9687;50.836;12.060;2022-09-09T15:33:23;25.40;56.20
19110;DHT22;9687;50.836;12.060;2022-09-09T15:35:53;25.30;56.80
19110;DHT22;9687;50.836;12.060;2022-09-09T15:38:27;25.20;57.30
19110;DHT22;9687;50.836;12.060;2022-09-09T15:40:57;25.10;57.70
19110;DHT22;9687;50.836;12.060;2022-09-09T15:43:24;25.00;57.50
19110;DHT22;9687;50.836;12.060;2022-09-09T15:45:58;24.90;56.90
19110;DHT22;9687;50.836;12.060;2022-09-09T15:48:30;24.80;56.90
19110;DHT22;9687;50.836;12.060;2022-09-09T15:51:02;24.70;57.00
19110;DHT22;9687;50.836;12.060;2022-09-09T15:53:38;24.70;57.00
19110;DHT22;9687;50.836;12.060;2022-09-09T15:56:08;24.60;56.20
19110;DHT22;9687;50.836;12.060;2022-09-09T15:58:41;24.50;55.70
19110;DHT22;9687;50.836;12.060;2022-09-09T16:01:27;24.50;56.10
19110;DHT22;9687;50.836;12.060;2022-09-09T16:03:58;24.40;56.50
19110;DHT22;9687;50.836;12.060;2022-09-09T16:06:32;24.40;56.70
19110;DHT22;9687;50.836;12.060;2022-09-09T16:09:03;24.40;57.00
19110;DHT22;9687;50.836;12.060;2022-09-09T16:11:36;26.30;58.90
19110;DHT22;9687;50.836;12.060;2022-09-09T16:14:05;24.30;57.90
19110;DHT22;9687;50.836;12.060;2022-09-09T16:16:36;24.30;57.90
19110;DHT22;9687;50.836;12.060;2022-09-09T16:19:08;24.30;57.10
19110;DHT22;9687;50.836;12.060;2022-09-09T16:21:40;24.30;56.80
19110;DHT22;9687;50.836;12.060;2022-09-09T16:24:10;24.30;56.60
19110;DHT22;9687;50.836;12.060;2022-09-09T16:26:43;24.20;56.40
19110;DHT22;9687;50.836;12.060;2022-09-09T16:29:12;24.20;56.40
19110;DHT22;9687;50.836;12.060;2022-09-09T16:31:44;24.20;56.30
19110;DHT22;9687;50.836;12.060;2022-09-09T16:34:36;24.20;56.10
19110;DHT22;9687;50.836;12.060;2022-09-09T16:37:20;24.20;55.40
19110;DHT22;9687;50.836;12.060;2022-09-09T16:39:49;24.10;55.70
19110;DHT22;9687;50.836;12.060;2022-09-09T16:42:18;24.10;56.90
19110;DHT22;9687;50.836;12.060;2022-09-09T16:44:46;24.00;58.10
19110;DHT22;9687;50.836;12.060;2022-09-09T16:47:17;24.00;58.70
19110;DHT22;9687;50.836;12.060;2022-09-09T16:49:45;24.00;59.50
19110;DHT22;9687;50.836;12.060;2022-09-09T16:52:23;23.90;60.60
19110;DHT22;9687;50.836;12.060;2022-09-09T16:54:51;23.90;61.60
19110;DHT22;9687;50.836;12.060;2022-09-09T16:57:42;23.80;62.40
19110;DHT22;9687;50.836;12.060;2022-09-09T17:00:15;23.80;63.00
19110;DHT22;9687;50.836;12.060;2022-09-09T17:02:53;23.70;63.70
19110;DHT22;9687;50.836;12.060;2022-09-09T17:05:23;23.60;64.40
19110;DHT22;9687;50.836;12.060;2022-09-09T17:08:05;23.50;64.90
19110;DHT22;9687;50.836;12.060;2022-09-09T17:10:39;23.50;65.30